Kayenta, AZ

5:58 PM MDT on August 25, 2016 (GMT -0600)
Blanding | | Change Station

Elev 5863 ft 37.58 °N, 109.48 °W | Updated 3 minutes ago

Scattered Clouds
Scattered Clouds
64 °F
Feels Like 64 °F
N
10
Wind Variable Wind from WNW
Gusts 17 mph

Today
High -- | Low -- °F
--% Chance of Precip.
Yesterday
High -- | Low -- °F
Precip. -- in
Pressure 30.22 in
Visibility 10.0 miles
Clouds Scattered Clouds 200 ft
Scattered Clouds 800 ft
Dew Point 45 °F
Humidity 49%
Rainfall 0.00 in
Snow Depth Not available.
6:47 AM 7:58 PM
Last Quarter, 40% visible
METAR KBDG 252355Z AUTO 30009G15KT 10SM SCT002 SCT008 18/07 A3022 RMK AO1 T01790071 10295 20099
Pressure 30.22 in
Visibility 10.0 miles
Clouds Scattered Clouds 200 ft
Scattered Clouds 800 ft
Dew Point 45 °F
Humidity 49%
Rainfall 0.00 in
Snow Depth Not available.
6:47 AM 7:58 PM
Last Quarter, 40% visible
METAR KBDG 252355Z AUTO 30009G15KT 10SM SCT002 SCT008 18/07 A3022 RMK AO1 T01790071 10295 20099
A tropical disturbance pushing toward the Bahamas, is expected to develop into a tropical depression or storm, and will likely target Florida and the Gulf Coast this weekend into next week.

Right now, the disturbance remains a broad area of low pressure pushing through the Dominican Republic and Haiti, headed toward the southeast Bahamas. Rainfall totals over 3 inches (with locally higher amounts) are expected in HispaƱiola, particularly over elevated terrain.

10-Day Weather Forecast

Almanac

Astronomy

Aug. 25, 2016 Rise Set
Actual Time
Civil Twilight
Nautical Twilight
Astronomical Twilight
Moon
Length of Visible Light
Length of Day
Tomorrow will be .
, % of the Moon is Illuminated

Today's Extremes

State Highs State Lows

Community

WunderPhotos

Upload Photos

1,934,967 photos uploaded!

WunderBlog® & News

Nearby

Air Quality

  Air Quality AQ Index Pollutant
Not available.

Snow Depth

Station Depth Elevation

Earthquake Activity

City Distance Mag. Time & Date
Minimum magnitude displayed is 2.5.

Coastal Water Temperatures

Place Temperature

Stations

Nearby Weather Stations

Station Location Temp. Windchill Dew Point Humidity Wind Precip. Elev Updated Type
                   

Watches & Warnings

Flood Watch / Flood Statement
Issued: 4:49 PM MDT Aug. 25, 2016 – National Weather Service

... The Flood Advisory expired at 445 PM MST for Coconino County...

The heavy rain has ended... and flooding is no longer expected to
pose a threat in the advisory area. Enhanced flow will continue in
area washes and streams through the evening.

Lat... Lon 3527 11080 3486 11081 3493 11121 3531 11110


Bak